sensor_id;sensor_type;location;lat;lon;timestamp;P1;durP1;ratioP1;P2;durP2;ratioP2
20699;SDS011;10511;51.232;9.420;2023-02-28T00:00:16;1.60;;;1.60;;
20699;SDS011;10511;51.232;9.420;2023-02-28T00:02:44;1.60;;;1.60;;
20699;SDS011;10511;51.232;9.420;2023-02-28T00:05:12;1.70;;;1.70;;
20699;SDS011;10511;51.232;9.420;2023-02-28T00:07:40;1.60;;;1.60;;
20699;SDS011;10511;51.232;9.420;2023-02-28T00:10:08;1.70;;;1.70;;
20699;SDS011;10511;51.232;9.420;2023-02-28T00:12:38;1.70;;;1.70;;
20699;SDS011;10511;51.232;9.420;2023-02-28T00:15:05;1.70;;;1.70;;
20699;SDS011;10511;51.232;9.420;2023-02-28T00:17:33;1.80;;;1.80;;
20699;SDS011;10511;51.232;9.420;2023-02-28T00:20:00;1.70;;;1.70;;
20699;SDS011;10511;51.232;9.420;2023-02-28T00:22:37;1.60;;;1.60;;
20699;SDS011;10511;51.232;9.420;2023-02-28T00:25:05;1.60;;;1.60;;
20699;SDS011;10511;51.232;9.420;2023-02-28T00:27:33;1.63;;;1.63;;
20699;SDS011;10511;51.232;9.420;2023-02-28T00:30:01;1.70;;;1.70;;
20699;SDS011;10511;51.232;9.420;2023-02-28T00:32:28;1.70;;;1.70;;
20699;SDS011;10511;51.232;9.420;2023-02-28T00:34:56;1.70;;;1.70;;
20699;SDS011;10511;51.232;9.420;2023-02-28T00:37:22;1.70;;;1.70;;
20699;SDS011;10511;51.232;9.420;2023-02-28T00:39:49;1.70;;;1.70;;
20699;SDS011;10511;51.232;9.420;2023-02-28T00:42:16;1.90;;;1.90;;
20699;SDS011;10511;51.232;9.420;2023-02-28T00:44:43;1.80;;;1.80;;
20699;SDS011;10511;51.232;9.420;2023-02-28T00:47:11;1.70;;;1.70;;
20699;SDS011;10511;51.232;9.420;2023-02-28T00:49:38;1.63;;;1.63;;
20699;SDS011;10511;51.232;9.420;2023-02-28T00:52:05;1.60;;;1.60;;
20699;SDS011;10511;51.232;9.420;2023-02-28T00:54:32;1.70;;;1.70;;
20699;SDS011;10511;51.232;9.420;2023-02-28T00:56:59;1.70;;;1.70;;
20699;SDS011;10511;51.232;9.420;2023-02-28T00:59:26;1.60;;;1.60;;
20699;SDS011;10511;51.232;9.420;2023-02-28T01:01:53;1.80;;;1.80;;
20699;SDS011;10511;51.232;9.420;2023-02-28T01:04:21;1.70;;;1.70;;
20699;SDS011;10511;51.232;9.420;2023-02-28T01:06:48;1.70;;;1.70;;
20699;SDS011;10511;51.232;9.420;2023-02-28T01:09:15;1.70;;;1.70;;
20699;SDS011;10511;51.232;9.420;2023-02-28T01:11:42;1.60;;;1.60;;
20699;SDS011;10511;51.232;9.420;2023-02-28T01:14:11;1.70;;;1.70;;
20699;SDS011;10511;51.232;9.420;2023-02-28T01:16:39;1.63;;;1.63;;
20699;SDS011;10511;51.232;9.420;2023-02-28T01:19:06;1.67;;;1.67;;
20699;SDS011;10511;51.232;9.420;2023-02-28T01:21:35;1.60;;;1.60;;
20699;SDS011;10511;51.232;9.420;2023-02-28T01:24:02;1.70;;;1.70;;
20699;SDS011;10511;51.232;9.420;2023-02-28T01:26:29;1.70;;;1.70;;
20699;SDS011;10511;51.232;9.420;2023-02-28T01:28:56;1.87;;;1.87;;
20699;SDS011;10511;51.232;9.420;2023-02-28T01:31:24;1.60;;;1.60;;
20699;SDS011;10511;51.232;9.420;2023-02-28T01:33:51;1.60;;;1.60;;
20699;SDS011;10511;51.232;9.420;2023-02-28T01:36:19;1.63;;;1.63;;
20699;SDS011;10511;51.232;9.420;2023-02-28T01:38:50;1.70;;;1.70;;
20699;SDS011;10511;51.232;9.420;2023-02-28T01:41:18;1.63;;;1.63;;
20699;SDS011;10511;51.232;9.420;2023-02-28T01:43:56;1.70;;;1.70;;
20699;SDS011;10511;51.232;9.420;2023-02-28T01:46:24;1.70;;;1.70;;
20699;SDS011;10511;51.232;9.420;2023-02-28T01:48:52;1.70;;;1.70;;
20699;SDS011;10511;51.232;9.420;2023-02-28T01:51:26;1.70;;;1.70;;
20699;SDS011;10511;51.232;9.420;2023-02-28T01:53:57;1.70;;;1.70;;
20699;SDS011;10511;51.232;9.420;2023-02-28T01:56:38;1.60;;;1.60;;
20699;SDS011;10511;51.232;9.420;2023-02-28T01:59:08;1.70;;;1.70;;
20699;SDS011;10511;51.232;9.420;2023-02-28T02:01:36;1.60;;;1.60;;
20699;SDS011;10511;51.232;9.420;2023-02-28T02:04:03;1.80;;;1.80;;
20699;SDS011;10511;51.232;9.420;2023-02-28T02:06:36;1.70;;;1.70;;
20699;SDS011;10511;51.232;9.420;2023-02-28T02:09:08;1.70;;;1.70;;
20699;SDS011;10511;51.232;9.420;2023-02-28T02:11:34;1.60;;;1.60;;
20699;SDS011;10511;51.232;9.420;2023-02-28T02:14:11;1.70;;;1.70;;
20699;SDS011;10511;51.232;9.420;2023-02-28T02:17:02;1.80;;;1.80;;
20699;SDS011;10511;51.232;9.420;2023-02-28T02:19:55;1.80;;;1.80;;
20699;SDS011;10511;51.232;9.420;2023-02-28T02:22:53;1.67;;;1.67;;
20699;SDS011;10511;51.232;9.420;2023-02-28T02:29:09;1.67;;;1.67;;
20699;SDS011;10511;51.232;9.420;2023-02-28T02:31:54;1.70;;;1.70;;
20699;SDS011;10511;51.232;9.420;2023-02-28T02:34:45;1.70;;;1.70;;
20699;SDS011;10511;51.232;9.420;2023-02-28T02:37:23;1.80;;;1.80;;
20699;SDS011;10511;51.232;9.420;2023-02-28T02:39:58;1.60;;;1.60;;
20699;SDS011;10511;51.232;9.420;2023-02-28T02:42:36;1.70;;;1.70;;
20699;SDS011;10511;51.232;9.420;2023-02-28T02:45:09;1.70;;;1.70;;
20699;SDS011;10511;51.232;9.420;2023-02-28T02:47:38;1.70;;;1.70;;
20699;SDS011;10511;51.232;9.420;2023-02-28T02:50:11;1.70;;;1.70;;
20699;SDS011;10511;51.232;9.420;2023-02-28T02:52:42;1.70;;;1.70;;
20699;SDS011;10511;51.232;9.420;2023-02-28T02:55:14;1.60;;;1.60;;
20699;SDS011;10511;51.232;9.420;2023-02-28T02:57:45;1.80;;;1.80;;
20699;SDS011;10511;51.232;9.420;2023-02-28T03:00:14;1.70;;;1.70;;
20699;SDS011;10511;51.232;9.420;2023-02-28T03:02:43;1.63;;;1.63;;
20699;SDS011;10511;51.232;9.420;2023-02-28T03:05:14;1.70;;;1.70;;
20699;SDS011;10511;51.232;9.420;2023-02-28T03:07:46;1.70;;;1.70;;
20699;SDS011;10511;51.232;9.420;2023-02-28T03:10:26;1.73;;;1.73;;
20699;SDS011;10511;51.232;9.420;2023-02-28T03:13:01;1.70;;;1.70;;
20699;SDS011;10511;51.232;9.420;2023-02-28T03:15:58;1.80;;;1.80;;
20699;SDS011;10511;51.232;9.420;2023-02-28T03:18:40;1.70;;;1.70;;
20699;SDS011;10511;51.232;9.420;2023-02-28T03:21:17;1.70;;;1.70;;
20699;SDS011;10511;51.232;9.420;2023-02-28T03:23:53;1.70;;;1.70;;
20699;SDS011;10511;51.232;9.420;2023-02-28T03:26:26;1.70;;;1.70;;
20699;SDS011;10511;51.232;9.420;2023-02-28T03:28:54;1.70;;;1.70;;
20699;SDS011;10511;51.232;9.420;2023-02-28T03:31:28;1.60;;;1.60;;
20699;SDS011;10511;51.232;9.420;2023-02-28T03:33:59;1.70;;;1.70;;
20699;SDS011;10511;51.232;9.420;2023-02-28T03:36:32;1.73;;;1.73;;
20699;SDS011;10511;51.232;9.420;2023-02-28T03:39:09;1.70;;;1.70;;
20699;SDS011;10511;51.232;9.420;2023-02-28T03:41:41;1.70;;;1.70;;
20699;SDS011;10511;51.232;9.420;2023-02-28T03:44:13;1.70;;;1.70;;
20699;SDS011;10511;51.232;9.420;2023-02-28T03:46:45;1.70;;;1.70;;
20699;SDS011;10511;51.232;9.420;2023-02-28T03:49:16;1.67;;;1.67;;
20699;SDS011;10511;51.232;9.420;2023-02-28T03:51:48;1.80;;;1.80;;
20699;SDS011;10511;51.232;9.420;2023-02-28T03:54:17;1.70;;;1.70;;
20699;SDS011;10511;51.232;9.420;2023-02-28T03:56:47;1.90;;;1.90;;
20699;SDS011;10511;51.232;9.420;2023-02-28T03:59:22;1.80;;;1.80;;
20699;SDS011;10511;51.232;9.420;2023-02-28T04:01:54;1.70;;;1.70;;
20699;SDS011;10511;51.232;9.420;2023-02-28T04:04:23;1.80;;;1.80;;
20699;SDS011;10511;51.232;9.420;2023-02-28T04:06:52;1.60;;;1.60;;
20699;SDS011;10511;51.232;9.420;2023-02-28T04:09:26;1.70;;;1.70;;
20699;SDS011;10511;51.232;9.420;2023-02-28T04:11:53;1.67;;;1.67;;
20699;SDS011;10511;51.232;9.420;2023-02-28T04:14:21;1.70;;;1.70;;
20699;SDS011;10511;51.232;9.420;2023-02-28T04:16:48;1.70;;;1.70;;
20699;SDS011;10511;51.232;9.420;2023-02-28T04:19:15;1.70;;;1.70;;
20699;SDS011;10511;51.232;9.420;2023-02-28T04:21:43;1.77;;;1.77;;
20699;SDS011;10511;51.232;9.420;2023-02-28T04:24:13;1.70;;;1.70;;
20699;SDS011;10511;51.232;9.420;2023-02-28T04:26:42;1.70;;;1.70;;
20699;SDS011;10511;51.232;9.420;2023-02-28T04:29:10;1.60;;;1.60;;
20699;SDS011;10511;51.232;9.420;2023-02-28T04:31:38;1.60;;;1.60;;
20699;SDS011;10511;51.232;9.420;2023-02-28T04:34:05;1.70;;;1.70;;
20699;SDS011;10511;51.232;9.420;2023-02-28T04:36:32;1.60;;;1.60;;
20699;SDS011;10511;51.232;9.420;2023-02-28T04:38:59;1.80;;;1.80;;
20699;SDS011;10511;51.232;9.420;2023-02-28T04:41:27;1.70;;;1.70;;
20699;SDS011;10511;51.232;9.420;2023-02-28T04:43:54;1.80;;;1.80;;
20699;SDS011;10511;51.232;9.420;2023-02-28T04:46:21;1.70;;;1.70;;
20699;SDS011;10511;51.232;9.420;2023-02-28T04:48:49;1.70;;;1.70;;
20699;SDS011;10511;51.232;9.420;2023-02-28T04:51:16;1.70;;;1.70;;
20699;SDS011;10511;51.232;9.420;2023-02-28T04:53:44;1.73;;;1.73;;
20699;SDS011;10511;51.232;9.420;2023-02-28T04:56:13;1.80;;;1.80;;
20699;SDS011;10511;51.232;9.420;2023-02-28T04:58:42;1.60;;;1.60;;
20699;SDS011;10511;51.232;9.420;2023-02-28T05:01:17;1.70;;;1.70;;
20699;SDS011;10511;51.232;9.420;2023-02-28T05:03:46;1.80;;;1.80;;
20699;SDS011;10511;51.232;9.420;2023-02-28T05:06:14;1.60;;;1.60;;
20699;SDS011;10511;51.232;9.420;2023-02-28T05:08:41;1.60;;;1.60;;
20699;SDS011;10511;51.232;9.420;2023-02-28T05:11:13;1.67;;;1.67;;
20699;SDS011;10511;51.232;9.420;2023-02-28T05:13:44;1.60;;;1.60;;
20699;SDS011;10511;51.232;9.420;2023-02-28T05:16:11;1.77;;;1.77;;
20699;SDS011;10511;51.232;9.420;2023-02-28T05:18:38;1.70;;;1.70;;
20699;SDS011;10511;51.232;9.420;2023-02-28T05:21:05;1.80;;;1.80;;
20699;SDS011;10511;51.232;9.420;2023-02-28T05:23:44;1.70;;;1.70;;
20699;SDS011;10511;51.232;9.420;2023-02-28T05:26:12;1.70;;;1.70;;
20699;SDS011;10511;51.232;9.420;2023-02-28T05:28:39;1.60;;;1.60;;
20699;SDS011;10511;51.232;9.420;2023-02-28T05:31:07;1.63;;;1.63;;
20699;SDS011;10511;51.232;9.420;2023-02-28T05:33:34;1.60;;;1.60;;
20699;SDS011;10511;51.232;9.420;2023-02-28T05:36:01;1.70;;;1.70;;
20699;SDS011;10511;51.232;9.420;2023-02-28T05:38:28;1.70;;;1.70;;
20699;SDS011;10511;51.232;9.420;2023-02-28T05:40:54;1.60;;;1.60;;
20699;SDS011;10511;51.232;9.420;2023-02-28T05:43:22;1.60;;;1.60;;
20699;SDS011;10511;51.232;9.420;2023-02-28T05:45:49;1.70;;;1.70;;
20699;SDS011;10511;51.232;9.420;2023-02-28T05:48:17;1.70;;;1.70;;
20699;SDS011;10511;51.232;9.420;2023-02-28T05:50:44;1.80;;;1.80;;
20699;SDS011;10511;51.232;9.420;2023-02-28T05:53:11;1.70;;;1.70;;
20699;SDS011;10511;51.232;9.420;2023-02-28T05:55:38;1.70;;;1.70;;
20699;SDS011;10511;51.232;9.420;2023-02-28T05:58:06;1.70;;;1.70;;
20699;SDS011;10511;51.232;9.420;2023-02-28T06:00:33;1.77;;;1.77;;
20699;SDS011;10511;51.232;9.420;2023-02-28T06:03:00;1.80;;;1.80;;
20699;SDS011;10511;51.232;9.420;2023-02-28T06:05:28;1.80;;;1.80;;
20699;SDS011;10511;51.232;9.420;2023-02-28T06:07:55;1.70;;;1.70;;
20699;SDS011;10511;51.232;9.420;2023-02-28T06:10:22;1.73;;;1.73;;
20699;SDS011;10511;51.232;9.420;2023-02-28T06:12:49;1.70;;;1.70;;
20699;SDS011;10511;51.232;9.420;2023-02-28T06:15:16;1.80;;;1.80;;
20699;SDS011;10511;51.232;9.420;2023-02-28T06:17:43;1.70;;;1.70;;
20699;SDS011;10511;51.232;9.420;2023-02-28T06:20:11;1.70;;;1.70;;
20699;SDS011;10511;51.232;9.420;2023-02-28T06:22:41;1.70;;;1.70;;
20699;SDS011;10511;51.232;9.420;2023-02-28T06:25:09;1.80;;;1.80;;
20699;SDS011;10511;51.232;9.420;2023-02-28T06:27:36;1.70;;;1.70;;
20699;SDS011;10511;51.232;9.420;2023-02-28T06:30:03;1.70;;;1.70;;
20699;SDS011;10511;51.232;9.420;2023-02-28T06:32:31;1.60;;;1.60;;
20699;SDS011;10511;51.232;9.420;2023-02-28T06:34:58;1.73;;;1.73;;
20699;SDS011;10511;51.232;9.420;2023-02-28T06:37:24;1.80;;;1.80;;
20699;SDS011;10511;51.232;9.420;2023-02-28T06:39:53;1.80;;;1.80;;
20699;SDS011;10511;51.232;9.420;2023-02-28T06:42:21;1.70;;;1.70;;
20699;SDS011;10511;51.232;9.420;2023-02-28T06:44:49;1.80;;;1.80;;
20699;SDS011;10511;51.232;9.420;2023-02-28T06:47:16;1.70;;;1.70;;
20699;SDS011;10511;51.232;9.420;2023-02-28T06:49:43;1.60;;;1.60;;
20699;SDS011;10511;51.232;9.420;2023-02-28T06:52:11;1.77;;;1.77;;
20699;SDS011;10511;51.232;9.420;2023-02-28T06:54:38;1.80;;;1.80;;
20699;SDS011;10511;51.232;9.420;2023-02-28T06:57:06;1.60;;;1.60;;
20699;SDS011;10511;51.232;9.420;2023-02-28T06:59:33;1.70;;;1.70;;
20699;SDS011;10511;51.232;9.420;2023-02-28T07:02:01;1.70;;;1.70;;
20699;SDS011;10511;51.232;9.420;2023-02-28T07:04:28;1.70;;;1.70;;
20699;SDS011;10511;51.232;9.420;2023-02-28T07:06:55;1.80;;;1.80;;
20699;SDS011;10511;51.232;9.420;2023-02-28T07:09:22;1.80;;;1.80;;
20699;SDS011;10511;51.232;9.420;2023-02-28T07:11:49;1.80;;;1.80;;
20699;SDS011;10511;51.232;9.420;2023-02-28T07:14:17;1.80;;;1.80;;
20699;SDS011;10511;51.232;9.420;2023-02-28T07:16:44;1.67;;;1.67;;
20699;SDS011;10511;51.232;9.420;2023-02-28T07:19:10;1.80;;;1.80;;
20699;SDS011;10511;51.232;9.420;2023-02-28T07:21:37;1.80;;;1.80;;
20699;SDS011;10511;51.232;9.420;2023-02-28T07:24:04;1.70;;;1.70;;
20699;SDS011;10511;51.232;9.420;2023-02-28T07:26:32;1.70;;;1.70;;
20699;SDS011;10511;51.232;9.420;2023-02-28T07:29:00;1.60;;;1.60;;
20699;SDS011;10511;51.232;9.420;2023-02-28T07:31:28;1.60;;;1.60;;
20699;SDS011;10511;51.232;9.420;2023-02-28T07:33:55;1.60;;;1.60;;
20699;SDS011;10511;51.232;9.420;2023-02-28T07:36:22;1.60;;;1.60;;
20699;SDS011;10511;51.232;9.420;2023-02-28T07:38:49;1.77;;;1.77;;
20699;SDS011;10511;51.232;9.420;2023-02-28T07:41:16;1.60;;;1.60;;
20699;SDS011;10511;51.232;9.420;2023-02-28T07:43:44;1.67;;;1.67;;
20699;SDS011;10511;51.232;9.420;2023-02-28T07:46:12;1.63;;;1.63;;
20699;SDS011;10511;51.232;9.420;2023-02-28T07:48:42;1.63;;;1.63;;
20699;SDS011;10511;51.232;9.420;2023-02-28T07:51:09;1.60;;;1.60;;
20699;SDS011;10511;51.232;9.420;2023-02-28T07:53:37;1.70;;;1.70;;
20699;SDS011;10511;51.232;9.420;2023-02-28T07:56:04;1.50;;;1.50;;
20699;SDS011;10511;51.232;9.420;2023-02-28T07:58:31;1.60;;;1.60;;
20699;SDS011;10511;51.232;9.420;2023-02-28T08:01:04;1.67;;;1.67;;
20699;SDS011;10511;51.232;9.420;2023-02-28T08:03:31;1.70;;;1.70;;
20699;SDS011;10511;51.232;9.420;2023-02-28T08:05:59;1.70;;;1.70;;
20699;SDS011;10511;51.232;9.420;2023-02-28T08:08:27;1.60;;;1.60;;
20699;SDS011;10511;51.232;9.420;2023-02-28T08:10:57;1.67;;;1.67;;
20699;SDS011;10511;51.232;9.420;2023-02-28T08:13:24;1.70;;;1.70;;
20699;SDS011;10511;51.232;9.420;2023-02-28T08:15:52;1.60;;;1.60;;
20699;SDS011;10511;51.232;9.420;2023-02-28T08:18:19;1.70;;;1.70;;
20699;SDS011;10511;51.232;9.420;2023-02-28T08:20:46;1.60;;;1.60;;
20699;SDS011;10511;51.232;9.420;2023-02-28T08:23:14;1.70;;;1.70;;
20699;SDS011;10511;51.232;9.420;2023-02-28T08:25:41;1.67;;;1.67;;
20699;SDS011;10511;51.232;9.420;2023-02-28T08:28:08;1.50;;;1.50;;
20699;SDS011;10511;51.232;9.420;2023-02-28T08:30:34;1.50;;;1.50;;
20699;SDS011;10511;51.232;9.420;2023-02-28T08:33:01;1.53;;;1.53;;
20699;SDS011;10511;51.232;9.420;2023-02-28T08:35:28;1.60;;;1.60;;
20699;SDS011;10511;51.232;9.420;2023-02-28T08:37:55;1.57;;;1.57;;
20699;SDS011;10511;51.232;9.420;2023-02-28T08:40:24;1.53;;;1.53;;
20699;SDS011;10511;51.232;9.420;2023-02-28T08:42:51;1.50;;;1.50;;
20699;SDS011;10511;51.232;9.420;2023-02-28T08:45:17;1.50;;;1.50;;
20699;SDS011;10511;51.232;9.420;2023-02-28T08:47:45;1.50;;;1.50;;
20699;SDS011;10511;51.232;9.420;2023-02-28T08:50:12;1.50;;;1.50;;
20699;SDS011;10511;51.232;9.420;2023-02-28T08:52:41;1.40;;;1.40;;
20699;SDS011;10511;51.232;9.420;2023-02-28T08:55:14;1.50;;;1.50;;
20699;SDS011;10511;51.232;9.420;2023-02-28T08:58:28;1.50;;;1.50;;
20699;SDS011;10511;51.232;9.420;2023-02-28T09:00:55;1.73;;;1.73;;
20699;SDS011;10511;51.232;9.420;2023-02-28T09:03:22;1.60;;;1.60;;
20699;SDS011;10511;51.232;9.420;2023-02-28T09:05:56;1.50;;;1.50;;
20699;SDS011;10511;51.232;9.420;2023-02-28T09:08:25;1.40;;;1.40;;
20699;SDS011;10511;51.232;9.420;2023-02-28T09:10:53;1.40;;;1.40;;
20699;SDS011;10511;51.232;9.420;2023-02-28T09:13:22;1.47;;;1.47;;
20699;SDS011;10511;51.232;9.420;2023-02-28T09:15:50;1.43;;;1.43;;
20699;SDS011;10511;51.232;9.420;2023-02-28T09:18:17;1.40;;;1.40;;
20699;SDS011;10511;51.232;9.420;2023-02-28T09:20:45;1.40;;;1.40;;
20699;SDS011;10511;51.232;9.420;2023-02-28T09:23:12;1.60;;;1.60;;
20699;SDS011;10511;51.232;9.420;2023-02-28T09:25:44;1.60;;;1.60;;
20699;SDS011;10511;51.232;9.420;2023-02-28T09:28:12;1.50;;;1.50;;
20699;SDS011;10511;51.232;9.420;2023-02-28T09:30:41;1.60;;;1.60;;
20699;SDS011;10511;51.232;9.420;2023-02-28T09:33:10;1.50;;;1.50;;
20699;SDS011;10511;51.232;9.420;2023-02-28T09:35:36;1.50;;;1.50;;
20699;SDS011;10511;51.232;9.420;2023-02-28T09:38:03;1.50;;;1.50;;
20699;SDS011;10511;51.232;9.420;2023-02-28T09:40:34;1.40;;;1.40;;
20699;SDS011;10511;51.232;9.420;2023-02-28T09:43:03;1.40;;;1.40;;
20699;SDS011;10511;51.232;9.420;2023-02-28T09:45:32;1.50;;;1.50;;
20699;SDS011;10511;51.232;9.420;2023-02-28T09:48:03;1.40;;;1.40;;
20699;SDS011;10511;51.232;9.420;2023-02-28T09:50:38;1.47;;;1.47;;
20699;SDS011;10511;51.232;9.420;2023-02-28T09:53:10;1.30;;;1.30;;
20699;SDS011;10511;51.232;9.420;2023-02-28T09:55:42;1.40;;;1.40;;
20699;SDS011;10511;51.232;9.420;2023-02-28T09:58:11;1.40;;;1.40;;
20699;SDS011;10511;51.232;9.420;2023-02-28T10:00:44;1.40;;;1.40;;
20699;SDS011;10511;51.232;9.420;2023-02-28T10:06:08;1.37;;;1.37;;
20699;SDS011;10511;51.232;9.420;2023-02-28T10:08:40;1.40;;;1.40;;
20699;SDS011;10511;51.232;9.420;2023-02-28T10:11:12;1.40;;;1.40;;
20699;SDS011;10511;51.232;9.420;2023-02-28T10:13:46;1.50;;;1.50;;
20699;SDS011;10511;51.232;9.420;2023-02-28T10:16:20;1.30;;;1.30;;
20699;SDS011;10511;51.232;9.420;2023-02-28T10:18:52;1.30;;;1.30;;
20699;SDS011;10511;51.232;9.420;2023-02-28T10:21:25;1.40;;;1.40;;
20699;SDS011;10511;51.232;9.420;2023-02-28T10:23:57;1.30;;;1.30;;
20699;SDS011;10511;51.232;9.420;2023-02-28T10:26:30;1.20;;;1.20;;
20699;SDS011;10511;51.232;9.420;2023-02-28T10:28:58;1.30;;;1.30;;
20699;SDS011;10511;51.232;9.420;2023-02-28T10:31:25;1.40;;;1.40;;
20699;SDS011;10511;51.232;9.420;2023-02-28T10:33:52;1.30;;;1.30;;
20699;SDS011;10511;51.232;9.420;2023-02-28T10:36:19;1.30;;;1.30;;
20699;SDS011;10511;51.232;9.420;2023-02-28T10:38:49;1.37;;;1.37;;
20699;SDS011;10511;51.232;9.420;2023-02-28T10:41:17;1.30;;;1.30;;
20699;SDS011;10511;51.232;9.420;2023-02-28T10:43:57;1.20;;;1.20;;
20699;SDS011;10511;51.232;9.420;2023-02-28T10:46:39;1.30;;;1.30;;
20699;SDS011;10511;51.232;9.420;2023-02-28T10:49:12;1.30;;;1.30;;
20699;SDS011;10511;51.232;9.420;2023-02-28T10:51:41;1.40;;;1.40;;
20699;SDS011;10511;51.232;9.420;2023-02-28T10:54:16;1.30;;;1.30;;
20699;SDS011;10511;51.232;9.420;2023-02-28T10:56:45;1.30;;;1.30;;
20699;SDS011;10511;51.232;9.420;2023-02-28T10:59:26;1.30;;;1.30;;
20699;SDS011;10511;51.232;9.420;2023-02-28T11:01:55;1.30;;;1.30;;
20699;SDS011;10511;51.232;9.420;2023-02-28T11:04:33;1.30;;;1.30;;
20699;SDS011;10511;51.232;9.420;2023-02-28T11:07:03;1.20;;;1.20;;
20699;SDS011;10511;51.232;9.420;2023-02-28T11:09:34;1.30;;;1.30;;
20699;SDS011;10511;51.232;9.420;2023-02-28T11:12:04;1.30;;;1.30;;
20699;SDS011;10511;51.232;9.420;2023-02-28T11:14:35;1.37;;;1.37;;
20699;SDS011;10511;51.232;9.420;2023-02-28T11:17:11;1.40;;;1.40;;
20699;SDS011;10511;51.232;9.420;2023-02-28T11:19:46;1.30;;;1.30;;
20699;SDS011;10511;51.232;9.420;2023-02-28T11:22:17;1.30;;;1.30;;
20699;SDS011;10511;51.232;9.420;2023-02-28T11:24:48;1.37;;;1.37;;
20699;SDS011;10511;51.232;9.420;2023-02-28T11:27:40;1.30;;;1.30;;
20699;SDS011;10511;51.232;9.420;2023-02-28T11:32:58;1.20;;;1.20;;
20699;SDS011;10511;51.232;9.420;2023-02-28T11:35:27;1.40;;;1.40;;
20699;SDS011;10511;51.232;9.420;2023-02-28T11:37:59;1.23;;;1.23;;
20699;SDS011;10511;51.232;9.420;2023-02-28T11:40:30;1.30;;;1.30;;
20699;SDS011;10511;51.232;9.420;2023-02-28T11:43:06;1.40;;;1.40;;
20699;SDS011;10511;51.232;9.420;2023-02-28T11:45:45;1.40;;;1.40;;
20699;SDS011;10511;51.232;9.420;2023-02-28T11:48:23;1.30;;;1.30;;
20699;SDS011;10511;51.232;9.420;2023-02-28T11:51:01;1.20;;;1.20;;
20699;SDS011;10511;51.232;9.420;2023-02-28T11:53:43;1.33;;;1.33;;
20699;SDS011;10511;51.232;9.420;2023-02-28T11:56:26;1.20;;;1.20;;
20699;SDS011;10511;51.232;9.420;2023-02-28T11:59:02;1.13;;;1.13;;
20699;SDS011;10511;51.232;9.420;2023-02-28T12:01:45;1.17;;;1.17;;
20699;SDS011;10511;51.232;9.420;2023-02-28T12:04:33;1.20;;;1.20;;
20699;SDS011;10511;51.232;9.420;2023-02-28T12:07:09;1.23;;;1.23;;
20699;SDS011;10511;51.232;9.420;2023-02-28T12:09:47;1.30;;;1.30;;
20699;SDS011;10511;51.232;9.420;2023-02-28T12:12:29;1.30;;;1.30;;
20699;SDS011;10511;51.232;9.420;2023-02-28T12:15:17;1.20;;;1.20;;
20699;SDS011;10511;51.232;9.420;2023-02-28T12:18:13;1.20;;;1.20;;
20699;SDS011;10511;51.232;9.420;2023-02-28T12:20:53;1.20;;;1.20;;
20699;SDS011;10511;51.232;9.420;2023-02-28T12:23:40;1.20;;;1.20;;
20699;SDS011;10511;51.232;9.420;2023-02-28T12:26:17;1.20;;;1.20;;
20699;SDS011;10511;51.232;9.420;2023-02-28T12:28:57;1.20;;;1.20;;
20699;SDS011;10511;51.232;9.420;2023-02-28T12:31:29;1.17;;;1.17;;
20699;SDS011;10511;51.232;9.420;2023-02-28T12:34:01;1.20;;;1.20;;
20699;SDS011;10511;51.232;9.420;2023-02-28T12:36:32;1.30;;;1.30;;
20699;SDS011;10511;51.232;9.420;2023-02-28T12:39:02;1.27;;;1.27;;
20699;SDS011;10511;51.232;9.420;2023-02-28T12:41:36;1.20;;;1.20;;
20699;SDS011;10511;51.232;9.420;2023-02-28T12:44:09;1.40;;;1.40;;
20699;SDS011;10511;51.232;9.420;2023-02-28T12:46:41;1.20;;;1.20;;
20699;SDS011;10511;51.232;9.420;2023-02-28T12:49:10;1.20;;;1.20;;
20699;SDS011;10511;51.232;9.420;2023-02-28T12:51:40;1.23;;;1.23;;
20699;SDS011;10511;51.232;9.420;2023-02-28T12:54:10;1.20;;;1.20;;
20699;SDS011;10511;51.232;9.420;2023-02-28T12:56:44;1.30;;;1.30;;
20699;SDS011;10511;51.232;9.420;2023-02-28T12:59:19;1.30;;;1.30;;
20699;SDS011;10511;51.232;9.420;2023-02-28T13:04:44;1.20;;;1.20;;
20699;SDS011;10511;51.232;9.420;2023-02-28T13:07:34;1.13;;;1.13;;
20699;SDS011;10511;51.232;9.420;2023-02-28T13:10:21;1.10;;;1.10;;
20699;SDS011;10511;51.232;9.420;2023-02-28T13:12:49;1.20;;;1.20;;
20699;SDS011;10511;51.232;9.420;2023-02-28T13:15:19;1.20;;;1.20;;
20699;SDS011;10511;51.232;9.420;2023-02-28T13:17:49;1.20;;;1.20;;
20699;SDS011;10511;51.232;9.420;2023-02-28T13:20:18;1.17;;;1.17;;
20699;SDS011;10511;51.232;9.420;2023-02-28T13:22:47;1.20;;;1.20;;
20699;SDS011;10511;51.232;9.420;2023-02-28T13:31:33;1.20;;;1.20;;
20699;SDS011;10511;51.232;9.420;2023-02-28T13:34:38;1.10;;;1.10;;
20699;SDS011;10511;51.232;9.420;2023-02-28T13:40:06;1.20;;;1.20;;
20699;SDS011;10511;51.232;9.420;2023-02-28T13:42:48;1.10;;;1.10;;
20699;SDS011;10511;51.232;9.420;2023-02-28T13:45:26;1.20;;;1.20;;
20699;SDS011;10511;51.232;9.420;2023-02-28T13:47:57;1.27;;;1.27;;
20699;SDS011;10511;51.232;9.420;2023-02-28T13:50:31;1.20;;;1.20;;
20699;SDS011;10511;51.232;9.420;2023-02-28T13:55:57;1.20;;;1.20;;
20699;SDS011;10511;51.232;9.420;2023-02-28T13:58:39;1.30;;;1.30;;
20699;SDS011;10511;51.232;9.420;2023-02-28T14:01:16;1.30;;;1.30;;
20699;SDS011;10511;51.232;9.420;2023-02-28T14:07:17;1.30;;;1.30;;
20699;SDS011;10511;51.232;9.420;2023-02-28T14:09:49;1.20;;;1.20;;
20699;SDS011;10511;51.232;9.420;2023-02-28T14:18:22;1.30;;;1.30;;
20699;SDS011;10511;51.232;9.420;2023-02-28T14:20:54;1.20;;;1.20;;
20699;SDS011;10511;51.232;9.420;2023-02-28T14:23:36;1.20;;;1.20;;
20699;SDS011;10511;51.232;9.420;2023-02-28T14:26:29;1.20;;;1.20;;
20699;SDS011;10511;51.232;9.420;2023-02-28T14:29:14;1.23;;;1.23;;
20699;SDS011;10511;51.232;9.420;2023-02-28T14:31:54;1.23;;;1.23;;
20699;SDS011;10511;51.232;9.420;2023-02-28T14:34:37;1.30;;;1.30;;
20699;SDS011;10511;51.232;9.420;2023-02-28T14:37:14;1.30;;;1.30;;
20699;SDS011;10511;51.232;9.420;2023-02-28T14:39:44;1.30;;;1.30;;
20699;SDS011;10511;51.232;9.420;2023-02-28T14:42:28;1.20;;;1.20;;
20699;SDS011;10511;51.232;9.420;2023-02-28T14:44:55;1.20;;;1.20;;
20699;SDS011;10511;51.232;9.420;2023-02-28T14:47:24;1.23;;;1.23;;
20699;SDS011;10511;51.232;9.420;2023-02-28T14:49:54;1.30;;;1.30;;
20699;SDS011;10511;51.232;9.420;2023-02-28T14:52:23;1.30;;;1.30;;
20699;SDS011;10511;51.232;9.420;2023-02-28T14:54:54;1.30;;;1.30;;
20699;SDS011;10511;51.232;9.420;2023-02-28T14:57:23;1.27;;;1.27;;
20699;SDS011;10511;51.232;9.420;2023-02-28T14:59:58;1.30;;;1.30;;
20699;SDS011;10511;51.232;9.420;2023-02-28T15:02:29;1.30;;;1.30;;
20699;SDS011;10511;51.232;9.420;2023-02-28T15:05:00;1.30;;;1.30;;
20699;SDS011;10511;51.232;9.420;2023-02-28T15:07:43;1.20;;;1.20;;
20699;SDS011;10511;51.232;9.420;2023-02-28T15:10:13;1.20;;;1.20;;
20699;SDS011;10511;51.232;9.420;2023-02-28T15:12:45;1.30;;;1.30;;
20699;SDS011;10511;51.232;9.420;2023-02-28T15:15:17;1.30;;;1.30;;
20699;SDS011;10511;51.232;9.420;2023-02-28T15:17:46;1.40;;;1.40;;
20699;SDS011;10511;51.232;9.420;2023-02-28T15:20:17;1.30;;;1.30;;
20699;SDS011;10511;51.232;9.420;2023-02-28T15:22:47;1.30;;;1.30;;
20699;SDS011;10511;51.232;9.420;2023-02-28T15:25:18;1.20;;;1.20;;
20699;SDS011;10511;51.232;9.420;2023-02-28T15:27:47;1.30;;;1.30;;
20699;SDS011;10511;51.232;9.420;2023-02-28T15:30:17;1.30;;;1.30;;
20699;SDS011;10511;51.232;9.420;2023-02-28T15:33:01;1.30;;;1.30;;
20699;SDS011;10511;51.232;9.420;2023-02-28T15:35:31;1.20;;;1.20;;
20699;SDS011;10511;51.232;9.420;2023-02-28T15:38:01;1.30;;;1.30;;
20699;SDS011;10511;51.232;9.420;2023-02-28T15:40:31;1.50;;;1.50;;
20699;SDS011;10511;51.232;9.420;2023-02-28T15:43:05;1.30;;;1.30;;
20699;SDS011;10511;51.232;9.420;2023-02-28T15:45:33;1.40;;;1.40;;